BAW3 EGLL-KJFK
Flight info
| Callsign | BAW3 |
|---|---|
| Flight time | N/A |
| Altitude | 36000 |
| Route | CPT DCT LESLU/M080F360 DCT 5041N01500W 5050N02000W 5030N03000W 4916N04000W 4703N05000W 4610N05300W/N0472F360 4414N06000W/N0467F380 4246N06500W 42N067W DCT KENDA DCT LINND DCT OWENZ DCT CAMRN |
| Aircraft | CONC/H-SDE2E3FGHIRYW/X |
Departure
| Time | 2026-05-04 14:36 |
|---|---|
| Airport | London Heathrow Airport (EGLL) |
Arrival
| Time | N/A |
|---|---|
| Airport | John F. Kennedy International Airport (KJFK) |
| Time | Latitude | Longitude | Altitude | Speed | Heading |
|---|---|---|---|---|---|
| 2026-05-04 14:00 | 51.46136 | -0.44431 | 88 ft | 0 kts | 297° |
| 2026-05-04 14:21 | 51.46129 | -0.44411 | 88 ft | 2 kts | 297° |
| 2026-05-04 14:21 | 51.46122 | -0.44390 | 89 ft | 2 kts | 297° |
| 2026-05-04 14:21 | 51.46115 | -0.44368 | 89 ft | 2 kts | 309° |
| 2026-05-04 14:21 | 51.46104 | -0.44356 | 89 ft | 2 kts | 339° |
| 2026-05-04 14:22 | 51.46090 | -0.44355 | 89 ft | 2 kts | 12° |
| 2026-05-04 14:22 | 51.46083 | -0.44359 | 89 ft | 1 kts | 30° |
| 2026-05-04 14:22 | 51.46079 | -0.44361 | 89 ft | 0 kts | 24° |
| 2026-05-04 14:24 | 51.46080 | -0.44361 | 89 ft | 1 kts | 24° |
| 2026-05-04 14:24 | 51.46101 | -0.44347 | 89 ft | 5 kts | 24° |
| 2026-05-04 14:25 | 51.46148 | -0.44314 | 88 ft | 9 kts | 24° |
| 2026-05-04 14:25 | 51.46312 | -0.44198 | 88 ft | 15 kts | 28° |
| 2026-05-04 14:25 | 51.46345 | -0.44170 | 88 ft | 0 kts | 29° |
| 2026-05-04 14:26 | 51.46345 | -0.44169 | 88 ft | 0 kts | 29° |
| 2026-05-04 14:26 | 51.46356 | -0.44160 | 88 ft | 3 kts | 29° |
| 2026-05-04 14:27 | 51.46385 | -0.44134 | 88 ft | 6 kts | 29° |
| 2026-05-04 14:27 | 51.46432 | -0.44093 | 88 ft | 9 kts | 29° |
| 2026-05-04 14:27 | 51.46505 | -0.44053 | 88 ft | 12 kts | 1° |
| 2026-05-04 14:27 | 51.46586 | -0.44052 | 89 ft | 10 kts | 2° |
| 2026-05-04 14:28 | 51.46639 | -0.44015 | 88 ft | 7 kts | 48° |
| 2026-05-04 14:28 | 51.46658 | -0.43950 | 87 ft | 10 kts | 76° |
| 2026-05-04 14:28 | 51.46670 | -0.43778 | 84 ft | 20 kts | 87° |
| 2026-05-04 14:28 | 51.46714 | -0.43627 | 83 ft | 13 kts | 26° |
| 2026-05-04 14:29 | 51.46939 | -0.43585 | 82 ft | 18 kts | 349° |
| 2026-05-04 14:29 | 51.46979 | -0.43598 | 81 ft | 4 kts | 350° |
| 2026-05-04 14:30 | 51.47062 | -0.43606 | 80 ft | 17 kts | 1° |
| 2026-05-04 14:30 | 51.47200 | -0.43599 | 79 ft | 21 kts | 7° |
| 2026-05-04 14:30 | 51.47433 | -0.43365 | 81 ft | 16 kts | 40° |
| 2026-05-04 14:31 | 51.47519 | -0.43269 | 81 ft | 13 kts | 20° |
| 2026-05-04 14:31 | 51.47598 | -0.43256 | 81 ft | 0 kts | 0° |
| 2026-05-04 14:33 | 51.47604 | -0.43256 | 81 ft | 2 kts | 0° |
| 2026-05-04 14:33 | 51.47641 | -0.43264 | 81 ft | 10 kts | 343° |
| 2026-05-04 14:33 | 51.47731 | -0.43352 | 84 ft | 19 kts | 322° |
| 2026-05-04 14:33 | 51.47768 | -0.43489 | 86 ft | 10 kts | 269° |
| 2026-05-04 14:34 | 51.47768 | -0.43497 | 86 ft | 0 kts | 269° |
| 2026-05-04 14:35 | 51.47767 | -0.43541 | 86 ft | 16 kts | 269° |
| 2026-05-04 14:35 | 51.47768 | -0.44031 | 92 ft | 82 kts | 270° |
| 2026-05-04 14:36 | 51.47763 | -0.45413 | 89 ft | 163 kts | 270° |
| 2026-05-04 14:36 | 51.47761 | -0.47632 | 96 ft | 230 kts | 271° |
| 2026-05-04 14:36 | 51.47757 | -0.50453 | 268 ft | 278 kts | 272° |
| 2026-05-04 14:36 | 51.47783 | -0.53817 | 757 ft | 329 kts | 271° |
| 2026-05-04 14:37 | 51.47467 | -0.57314 | 415 ft | 290 kts | 248° |
| 2026-05-04 14:37 | 51.46766 | -0.60065 | 336 ft | 245 kts | 249° |
| 2026-05-04 14:37 | 51.46166 | -0.62397 | 204 ft | 204 kts | 254° |
| 2026-05-04 14:37 | 51.45922 | -0.63517 | 199 ft | 0 kts | 258° |